Time;durP1;ratioP1;P1;durP2;ratioP2;P2;SDS_P1;SDS_P2;PMS_P1;PMS_P2;Temp;Humidity;BMP_temperature;BMP_pressure;BME280_temperature;BME280_humidity;BME280_pressure;Samples;Min_cycle;Max_cycle;Signal;HPM_P1;HPM_P2
2022/07/21 00:01:29;;;;;;;32.75;25.08;;;18.80;99.90;;;;;;5104893;28;20019;-70
2022/07/21 00:03:54;;;;;;;27.65;24.73;;;18.80;99.90;;;;;;5104944;28;20032;-68
2022/07/21 00:06:20;;;;;;;29.02;24.52;;;18.80;99.90;;;;;;5091546;28;20119;-69
2022/07/21 00:08:46;;;;;;;26.02;23.27;;;18.80;99.90;;;;;;5087434;28;20098;-69
2022/07/21 00:11:11;;;;;;;26.83;24.00;;;18.80;99.90;;;;;;5100566;28;20032;-69
2022/07/21 00:13:37;;;;;;;28.85;25.80;;;18.80;99.90;;;;;;5106683;28;20455;-69
2022/07/21 00:16:03;;;;;;;27.85;24.85;;;18.80;99.90;;;;;;5108851;28;20048;-69
2022/07/21 00:18:29;;;;;;;29.70;26.65;;;18.80;99.90;;;;;;5102731;28;20111;-70
2022/07/21 00:20:57;;;;;;;28.92;26.02;;;18.80;99.90;;;;;;5107490;28;20115;-69
2022/07/21 00:23:26;;;;;;;31.52;27.13;;;18.80;99.90;;;;;;5108765;28;20023;-69
2022/07/21 00:25:52;;;;;;;29.98;26.88;;;18.80;99.90;;;;;;5095152;28;20050;-69
2022/07/21 00:28:18;;;;;;;30.63;26.92;;;18.70;99.90;;;;;;5105874;28;20071;-69
2022/07/21 00:30:45;;;;;;;30.33;26.83;;;18.80;99.90;;;;;;5101982;28;20484;-69
2022/07/21 00:33:10;;;;;;;28.48;25.40;;;18.80;99.90;;;;;;5108234;28;20515;-69
2022/07/21 00:35:36;;;;;;;31.98;28.55;;;18.80;99.90;;;;;;5106822;28;20036;-69
2022/07/21 00:38:02;;;;;;;29.05;25.95;;;18.80;99.90;;;;;;5106297;28;20032;-69
2022/07/21 00:40:28;;;;;;;28.02;24.60;;;18.80;99.90;;;;;;5102885;28;20023;-70
2022/07/21 00:42:54;;;;;;;28.98;26.02;;;18.90;99.90;;;;;;5095291;28;20035;-70
2022/07/21 00:45:20;;;;;;;29.80;26.67;;;18.90;99.90;;;;;;5090820;28;21166;-69
2022/07/21 00:47:45;;;;;;;27.85;25.02;;;18.90;99.90;;;;;;5100216;28;20024;-69
2022/07/21 00:50:14;;;;;;;28.58;25.40;;;18.90;99.90;;;;;;5103817;28;20460;-69
2022/07/21 00:52:41;;;;;;;26.65;23.88;;;18.90;99.90;;;;;;5105600;28;20035;-69
2022/07/21 00:55:09;;;;;;;28.77;25.77;;;18.90;99.90;;;;;;5109584;28;20134;-69
2022/07/21 00:57:35;;;;;;;29.83;26.38;;;19.00;99.90;;;;;;5107591;28;20396;-69
2022/07/21 01:00:04;;;;;;;27.73;24.80;;;19.00;99.90;;;;;;5107165;28;20028;-69
2022/07/21 01:02:31;;;;;;;28.25;24.95;;;19.00;99.90;;;;;;5081422;28;20358;-69
2022/07/21 01:04:57;;;;;;;29.10;24.60;;;19.00;99.90;;;;;;5094623;28;20102;-69
2022/07/21 01:07:23;;;;;;;31.23;22.90;;;19.10;99.90;;;;;;5102509;28;20528;-69
2022/07/21 01:09:49;;;;;;;24.65;22.15;;;19.10;99.90;;;;;;5105461;28;20160;-69
2022/07/21 01:12:15;;;;;;;27.38;24.50;;;19.10;99.90;;;;;;5105512;28;20383;-69
2022/07/21 01:14:41;;;;;;;27.42;22.75;;;19.10;99.90;;;;;;5106382;28;20102;-68
2022/07/21 01:17:07;;;;;;;26.02;21.98;;;19.20;99.90;;;;;;5099303;28;20564;-69
2022/07/21 01:19:32;;;;;;;26.95;21.27;;;19.20;99.90;;;;;;5100836;28;20099;-70
2022/07/21 01:21:58;;;;;;;23.60;20.30;;;19.20;99.90;;;;;;5110897;28;20054;-69
2022/07/21 01:24:24;;;;;;;25.92;21.27;;;19.20;99.90;;;;;;5102139;28;20028;-69
2022/07/21 01:26:52;;;;;;;20.38;18.20;;;19.20;99.90;;;;;;5099160;28;20024;-70
2022/07/21 01:29:18;;;;;;;22.73;19.83;;;19.20;99.90;;;;;;5105983;28;20023;-69
2022/07/21 01:31:45;;;;;;;21.17;19.08;;;19.20;99.90;;;;;;5106758;28;20052;-69
2022/07/21 01:34:12;;;;;;;21.13;18.77;;;19.20;99.90;;;;;;5102164;28;20032;-69
2022/07/21 01:36:38;;;;;;;20.30;18.20;;;19.20;99.90;;;;;;5095787;28;20024;-69
2022/07/21 01:41:49;;;;;;;20.70;18.55;;;19.20;99.90;;;;;;5100055;28;20038;-69
2022/07/21 01:44:16;;;;;;;22.48;19.38;;;19.10;99.90;;;;;;5107648;28;20028;-69
2022/07/21 01:46:44;;;;;;;20.00;17.92;;;19.10;99.90;;;;;;5103689;28;20391;-70
2022/07/21 01:49:11;;;;;;;21.83;19.52;;;19.20;99.90;;;;;;5104781;28;20027;-68
2022/07/21 01:51:37;;;;;;;20.25;18.08;;;19.10;99.90;;;;;;5103936;28;20530;-68
2022/07/21 01:54:04;;;;;;;20.90;18.55;;;19.10;99.90;;;;;;5100945;28;20032;-69
2022/07/21 01:56:30;;;;;;;17.90;16.15;;;19.10;99.90;;;;;;5107048;28;20035;-70
2022/07/21 01:58:57;;;;;;;16.95;15.35;;;19.10;99.90;;;;;;5101185;28;20027;-69
2022/07/21 02:01:26;;;;;;;18.58;16.63;;;19.10;99.90;;;;;;5106131;28;20023;-69
2022/07/21 02:03:53;;;;;;;16.95;15.30;;;19.10;99.90;;;;;;5105877;28;20449;-69
2022/07/21 02:06:19;;;;;;;16.30;14.70;;;19.10;99.90;;;;;;5103540;28;20024;-69
2022/07/21 02:08:45;;;;;;;16.73;14.02;;;19.10;99.90;;;;;;5086922;28;20513;-71
2022/07/21 02:11:12;;;;;;;16.20;14.30;;;19.10;99.90;;;;;;5106148;28;20118;-69
2022/07/21 02:13:38;;;;;;;16.17;14.55;;;19.10;99.90;;;;;;5101834;28;20080;-70
2022/07/21 02:16:03;;;;;;;16.45;14.80;;;19.00;99.90;;;;;;5103933;28;20052;-69
2022/07/21 02:18:29;;;;;;;16.00;14.40;;;18.90;99.90;;;;;;5106391;28;20033;-69
2022/07/21 02:20:55;;;;;;;15.95;14.38;;;18.90;99.90;;;;;;5091234;28;20461;-70
2022/07/21 02:23:22;;;;;;;17.63;13.70;;;18.90;99.90;;;;;;5102401;28;20059;-70
2022/07/21 02:25:48;;;;;;;15.52;13.85;;;18.80;99.90;;;;;;5101609;28;20029;-70
2022/07/21 02:28:14;;;;;;;18.27;15.07;;;18.80;99.90;;;;;;5095698;28;20446;-69
2022/07/21 02:30:40;;;;;;;17.05;14.00;;;18.70;99.90;;;;;;5101242;28;20028;-70
2022/07/21 02:33:06;;;;;;;16.40;14.70;;;18.70;99.90;;;;;;5108231;28;20031;-70
2022/07/21 02:35:35;;;;;;;17.08;15.38;;;18.60;99.90;;;;;;5108558;28;20469;-70
2022/07/21 02:38:01;;;;;;;17.42;13.73;;;18.60;99.90;;;;;;5114354;28;20481;-70
2022/07/21 02:40:26;;;;;;;16.35;14.15;;;18.60;99.90;;;;;;5106324;28;20035;-70
2022/07/21 02:42:52;;;;;;;17.50;14.88;;;18.60;99.90;;;;;;5107793;28;20662;-70
2022/07/21 02:45:18;;;;;;;16.25;14.55;;;18.60;99.90;;;;;;5096035;28;20058;-70
2022/07/21 02:47:52;;;;;;;16.88;15.15;;;18.50;99.90;;;;;;5092269;28;20115;-69
2022/07/21 02:50:18;;;;;;;16.17;14.55;;;18.50;99.90;;;;;;5100457;28;20119;-69
2022/07/21 02:52:44;;;;;;;19.90;14.73;;;18.50;99.90;;;;;;5098341;28;20032;-73
2022/07/21 02:55:10;;;;;;;16.33;14.65;;;18.50;99.90;;;;;;5109051;28;20461;-72
2022/07/21 02:57:36;;;;;;;16.83;14.75;;;18.40;99.90;;;;;;5107871;28;20243;-73
2022/07/21 03:00:06;;;;;;;15.77;14.18;;;18.40;99.90;;;;;;5110847;28;20024;-73
2022/07/21 03:02:33;;;;;;;15.88;14.27;;;18.40;99.90;;;;;;5106074;28;20027;-72
2022/07/21 03:04:58;;;;;;;16.35;13.95;;;18.40;99.90;;;;;;5104708;28;20480;-72
2022/07/21 03:07:24;;;;;;;15.77;14.00;;;18.40;99.90;;;;;;5099538;28;20034;-72
2022/07/21 03:09:49;;;;;;;18.27;14.00;;;18.40;99.90;;;;;;5103522;28;20479;-72
2022/07/21 03:12:15;;;;;;;15.15;13.65;;;18.40;99.90;;;;;;5110986;28;20032;-72
2022/07/21 03:14:40;;;;;;;16.92;14.63;;;18.40;99.90;;;;;;5106978;28;20084;-72
2022/07/21 03:17:06;;;;;;;14.88;13.38;;;18.40;99.90;;;;;;5106485;28;20468;-72
2022/07/21 03:19:32;;;;;;;15.35;13.30;;;18.40;99.90;;;;;;5114123;28;20023;-76
2022/07/21 03:21:57;;;;;;;15.77;12.75;;;18.40;99.90;;;;;;5104314;28;20032;-75
2022/07/21 03:24:23;;;;;;;21.05;13.68;;;18.40;99.90;;;;;;5109884;28;20028;-76
2022/07/21 03:26:48;;;;;;;14.75;13.32;;;18.40;99.90;;;;;;5090663;28;20027;-78
2022/07/21 03:29:14;;;;;;;15.40;13.80;;;18.50;99.90;;;;;;5110721;28;20122;-76
2022/07/21 03:31:40;;;;;;;15.40;13.77;;;18.50;99.90;;;;;;5111206;28;20053;-76
2022/07/21 03:34:06;;;;;;;15.93;12.80;;;18.50;99.90;;;;;;5106265;28;20404;-76
2022/07/21 03:36:32;;;;;;;14.35;12.85;;;18.50;99.90;;;;;;5109587;28;20031;-74
2022/07/21 03:38:57;;;;;;;14.02;12.63;;;18.50;99.90;;;;;;5102383;28;20516;-76
2022/07/21 03:41:23;;;;;;;13.65;12.23;;;18.50;99.90;;;;;;5107332;28;20475;-77
2022/07/21 03:43:48;;;;;;;13.48;11.70;;;18.50;99.90;;;;;;5101200;28;20024;-77
2022/07/21 03:46:14;;;;;;;13.00;10.25;;;18.50;99.90;;;;;;5094832;28;20354;-77
2022/07/21 03:48:40;;;;;;;12.82;10.68;;;18.50;99.90;;;;;;5110087;28;20035;-76
2022/07/21 03:51:06;;;;;;;12.43;11.23;;;18.50;99.90;;;;;;5109265;28;20028;-76
2022/07/21 03:53:32;;;;;;;12.70;11.35;;;18.50;99.90;;;;;;5101719;28;20032;-77
2022/07/21 03:55:57;;;;;;;13.10;11.82;;;18.60;99.90;;;;;;5108322;28;20601;-77
2022/07/21 03:58:23;;;;;;;17.55;12.15;;;18.60;99.90;;;;;;5104028;28;20031;-77
2022/07/21 04:00:48;;;;;;;13.75;12.27;;;18.70;99.90;;;;;;5107031;28;20077;-77
2022/07/21 04:03:14;;;;;;;14.18;12.20;;;18.70;99.90;;;;;;5092965;28;20111;-76
2022/07/21 04:05:43;;;;;;;14.02;11.27;;;18.70;99.90;;;;;;5107169;28;20065;-75
2022/07/21 04:08:10;;;;;;;13.38;12.05;;;18.70;99.90;;;;;;5108669;28;20486;-77
2022/07/21 04:10:38;;;;;;;12.98;10.95;;;18.70;99.90;;;;;;5104133;28;20500;-73
2022/07/21 04:13:06;;;;;;;13.65;11.77;;;18.70;99.90;;;;;;5108346;28;20118;-77
2022/07/21 04:15:32;;;;;;;15.50;13.07;;;18.70;99.90;;;;;;5108888;28;20050;-76
2022/07/21 04:17:58;;;;;;;13.07;11.82;;;18.70;99.90;;;;;;5105514;28;20103;-77
2022/07/21 04:20:24;;;;;;;13.45;12.15;;;18.70;99.90;;;;;;5092360;28;20111;-77
2022/07/21 04:22:50;;;;;;;15.45;12.32;;;18.70;99.90;;;;;;5102021;28;20079;-77
2022/07/21 04:25:18;;;;;;;14.32;12.43;;;18.80;99.90;;;;;;5108023;28;20023;-77
2022/07/21 04:27:44;;;;;;;14.20;12.38;;;18.80;99.90;;;;;;5102974;28;20015;-77
2022/07/21 04:30:13;;;;;;;14.77;12.95;;;18.80;99.90;;;;;;5109633;28;20027;-79
2022/07/21 04:32:39;;;;;;;13.82;12.07;;;18.80;99.90;;;;;;5104021;28;20465;-75
2022/07/21 04:35:05;;;;;;;14.80;11.75;;;18.80;99.90;;;;;;5106693;28;20035;-78
2022/07/21 04:37:31;;;;;;;14.82;12.88;;;18.80;99.90;;;;;;5092630;28;20069;-75
2022/07/21 04:39:57;;;;;;;14.73;13.23;;;18.80;99.90;;;;;;5101458;28;20059;-77
2022/07/21 04:42:22;;;;;;;13.75;12.45;;;18.80;99.90;;;;;;5105505;28;20045;-77
2022/07/21 04:44:48;;;;;;;17.02;12.25;;;18.80;99.90;;;;;;5104464;28;20024;-77
2022/07/21 04:47:14;;;;;;;14.02;12.52;;;18.80;99.90;;;;;;5111705;28;20027;-76
2022/07/21 04:49:39;;;;;;;14.10;12.80;;;18.80;99.90;;;;;;5101443;28;20069;-73
2022/07/21 04:52:05;;;;;;;13.15;11.77;;;18.80;99.90;;;;;;5090366;28;20088;-76
2022/07/21 04:54:31;;;;;;;12.52;11.23;;;18.80;99.90;;;;;;5091471;28;20067;-78
2022/07/21 04:56:56;;;;;;;14.32;12.15;;;18.90;99.90;;;;;;5089258;28;20020;-77
2022/07/21 04:59:22;;;;;;;14.20;12.73;;;18.90;99.90;;;;;;5101559;28;20031;-75
2022/07/21 05:01:48;;;;;;;14.85;13.38;;;18.90;99.90;;;;;;5102796;28;20027;-75
2022/07/21 05:04:13;;;;;;;12.75;11.35;;;18.90;99.90;;;;;;5104254;28;20032;-76
2022/07/21 05:06:39;;;;;;;13.90;12.50;;;19.00;99.90;;;;;;5108395;28;20061;-71
2022/07/21 05:09:05;;;;;;;13.98;12.63;;;19.10;99.90;;;;;;5102540;28;20476;-69
2022/07/21 05:11:30;;;;;;;14.27;12.20;;;19.10;99.90;;;;;;5085458;28;20532;-69
2022/07/21 05:13:57;;;;;;;12.93;11.10;;;19.10;99.90;;;;;;5101168;28;20058;-69
2022/07/21 05:16:23;;;;;;;13.38;12.02;;;19.20;99.90;;;;;;5102184;28;20131;-68
2022/07/21 05:18:48;;;;;;;13.65;11.93;;;19.30;99.90;;;;;;5100561;28;20056;-71
2022/07/21 05:21:14;;;;;;;12.85;11.45;;;19.30;99.90;;;;;;5105666;28;20019;-69
2022/07/21 05:23:39;;;;;;;12.80;10.82;;;19.40;99.90;;;;;;5106819;28;20028;-71
2022/07/21 05:26:05;;;;;;;13.32;10.43;;;19.40;99.90;;;;;;5104223;28;20399;-70
2022/07/21 05:28:32;;;;;;;11.88;10.68;;;19.50;99.90;;;;;;5088953;28;20032;-78
2022/07/21 05:30:58;;;;;;;12.32;11.07;;;19.50;99.90;;;;;;5095015;28;20031;-80
2022/07/21 05:33:24;;;;;;;13.10;9.82;;;19.60;99.90;;;;;;5093594;28;20420;-79
2022/07/21 05:35:49;;;;;;;14.10;10.85;;;19.70;99.90;;;;;;5108398;28;20031;-82
2022/07/21 05:38:15;;;;;;;9.82;8.93;;;19.80;99.90;;;;;;5102283;28;20028;-80
2022/07/21 05:40:40;;;;;;;13.50;9.70;;;19.90;99.90;;;;;;5108348;28;20027;-79
2022/07/21 05:43:06;;;;;;;10.77;9.65;;;20.00;99.90;;;;;;5110369;28;20055;-82
2022/07/21 05:45:32;;;;;;;11.63;9.73;;;20.00;99.90;;;;;;5101499;28;20050;-82
2022/07/21 05:47:57;;;;;;;10.65;9.55;;;20.10;99.90;;;;;;5105108;28;20107;-80
2022/07/21 05:50:23;;;;;;;12.15;9.90;;;20.20;99.90;;;;;;5108532;28;20455;-83
2022/07/21 05:52:49;;;;;;;13.18;10.32;;;20.20;99.90;;;;;;5105698;28;20107;-80
2022/07/21 05:55:15;;;;;;;10.77;9.65;;;20.30;99.90;;;;;;5118241;28;20039;-84
2022/07/21 05:57:41;;;;;;;10.80;9.80;;;20.30;99.90;;;;;;5118506;28;20028;-76
2022/07/21 06:00:07;;;;;;;11.43;10.23;;;20.40;99.90;;;;;;5123976;28;20083;-80
2022/07/21 06:02:33;;;;;;;11.02;9.98;;;20.50;99.90;;;;;;5109644;28;20034;-78
2022/07/21 06:04:59;;;;;;;10.55;9.27;;;20.70;99.90;;;;;;5111189;28;20028;-78
2022/07/21 06:07:26;;;;;;;9.88;8.88;;;20.80;99.90;;;;;;5122166;27;20055;-77
2022/07/21 06:09:52;;;;;;;10.00;9.00;;;20.90;99.90;;;;;;5091882;28;20043;-78
2022/07/21 06:12:18;;;;;;;15.50;10.00;;;20.90;99.90;;;;;;5090381;28;20032;-75
2022/07/21 06:14:44;;;;;;;13.05;10.30;;;21.00;99.90;;;;;;5100872;28;20024;-74
2022/07/21 06:17:09;;;;;;;12.75;9.52;;;21.10;99.90;;;;;;5100271;28;20048;-76
2022/07/21 06:19:35;;;;;;;10.98;9.32;;;21.10;99.90;;;;;;5084676;28;20024;-76
2022/07/21 06:22:02;;;;;;;10.05;8.82;;;21.10;99.90;;;;;;5095151;28;20107;-77
2022/07/21 06:24:28;;;;;;;10.90;8.75;;;21.10;99.90;;;;;;5092378;28;20028;-77
2022/07/21 06:26:57;;;;;;;12.25;9.48;;;21.10;99.90;;;;;;5087168;28;20064;-76
2022/07/21 06:29:23;;;;;;;10.52;8.95;;;21.10;99.90;;;;;;5093625;28;20027;-74
2022/07/21 06:31:49;;;;;;;11.80;9.00;;;21.10;99.90;;;;;;5083187;28;20036;-76
2022/07/21 06:34:15;;;;;;;9.27;8.35;;;21.10;99.90;;;;;;5097781;28;20123;-70
2022/07/21 06:36:40;;;;;;;9.35;8.45;;;21.30;99.90;;;;;;5097617;28;20530;-71
2022/07/21 06:39:06;;;;;;;12.98;9.32;;;21.40;99.90;;;;;;5095979;28;20040;-71
2022/07/21 06:41:32;;;;;;;10.00;8.98;;;21.50;99.90;;;;;;5092904;28;20031;-72
2022/07/21 06:43:58;;;;;;;9.65;8.68;;;21.50;99.90;;;;;;5089949;28;20031;-72
2022/07/21 06:46:24;;;;;;;10.43;8.73;;;21.60;99.90;;;;;;5093951;28;20501;-70
2022/07/21 06:48:50;;;;;;;8.95;7.93;;;21.70;99.90;;;;;;5103412;28;20136;-70
2022/07/21 06:51:16;;;;;;;9.00;8.10;;;21.70;99.90;;;;;;5093416;28;20532;-70
2022/07/21 06:53:42;;;;;;;11.32;8.90;;;21.70;99.90;;;;;;5087134;28;20081;-73
2022/07/21 06:56:08;;;;;;;13.80;8.35;;;21.80;99.90;;;;;;5093065;28;20461;-70
2022/07/21 06:58:35;;;;;;;8.88;7.97;;;21.80;99.90;;;;;;5094753;28;20047;-70
2022/07/21 07:01:00;;;;;;;8.48;7.63;;;22.00;99.90;;;;;;5095279;28;20021;-70
2022/07/21 07:03:26;;;;;;;11.15;8.25;;;22.00;99.90;;;;;;5076711;28;20035;-71
2022/07/21 07:05:52;;;;;;;10.95;8.30;;;22.10;99.90;;;;;;5108772;27;20385;-70
2022/07/21 07:08:18;;;;;;;9.32;8.02;;;22.00;99.90;;;;;;5097133;28;20479;-70
2022/07/21 07:10:45;;;;;;;13.27;8.25;;;22.00;99.90;;;;;;5093904;28;20024;-72
2022/07/21 07:13:13;;;;;;;9.63;8.48;;;21.80;99.90;;;;;;5089703;28;20080;-70
2022/07/21 07:15:39;;;;;;;14.75;8.32;;;21.80;99.90;;;;;;5094059;28;20059;-70
2022/07/21 07:18:05;;;;;;;9.32;7.95;;;22.00;99.90;;;;;;5098311;28;20024;-70
2022/07/21 07:20:31;;;;;;;9.18;8.07;;;22.10;99.90;;;;;;5100555;28;20387;-70
2022/07/21 07:22:57;;;;;;;11.18;7.78;;;22.20;99.90;;;;;;5092953;28;20115;-70
2022/07/21 07:25:23;;;;;;;9.45;8.15;;;22.30;99.90;;;;;;5094240;28;20103;-70
2022/07/21 07:27:51;;;;;;;10.52;7.70;;;22.50;99.90;;;;;;5093102;28;20103;-71
2022/07/21 07:30:18;;;;;;;8.35;7.50;;;22.50;99.90;;;;;;5080517;28;20024;-70
2022/07/21 07:32:44;;;;;;;8.55;7.70;;;22.50;99.90;;;;;;5093783;28;20081;-72
2022/07/21 07:35:11;;;;;;;13.18;7.82;;;22.50;99.90;;;;;;5094558;28;20032;-70
2022/07/21 07:37:39;;;;;;;8.23;7.40;;;22.50;99.90;;;;;;5095047;28;20032;-71
2022/07/21 07:40:08;;;;;;;8.57;7.65;;;22.60;99.90;;;;;;5096094;28;20465;-71
2022/07/21 07:42:34;;;;;;;9.80;7.07;;;22.70;99.90;;;;;;5089756;28;20024;-71
2022/07/21 07:45:00;;;;;;;7.90;7.10;;;22.80;99.90;;;;;;5090000;28;20131;-71
2022/07/21 07:47:27;;;;;;;9.85;7.43;;;22.90;99.90;;;;;;5093087;28;20104;-70
2022/07/21 07:49:52;;;;;;;8.70;7.80;;;23.00;99.90;;;;;;5092368;28;20433;-71
2022/07/21 07:52:19;;;;;;;8.57;7.45;;;23.10;99.90;;;;;;5080806;28;20047;-71
2022/07/21 07:54:45;;;;;;;11.75;7.82;;;23.20;99.90;;;;;;5093903;28;20387;-73
2022/07/21 07:57:11;;;;;;;7.78;7.00;;;23.30;99.90;;;;;;5096635;28;20110;-71
2022/07/21 07:59:37;;;;;;;10.02;7.15;;;23.30;99.90;;;;;;5095297;28;20153;-71
2022/07/21 08:02:02;;;;;;;8.70;6.60;;;23.30;99.90;;;;;;5087109;28;20051;-71
2022/07/21 08:04:28;;;;;;;6.82;6.20;;;23.20;99.90;;;;;;5095549;28;20104;-70
2022/07/21 08:06:54;;;;;;;8.02;6.57;;;23.20;99.90;;;;;;5094239;28;20031;-70
2022/07/21 08:09:20;;;;;;;6.95;6.28;;;23.20;99.90;;;;;;5088846;28;20020;-71
2022/07/21 08:11:46;;;;;;;8.35;6.70;;;23.30;99.90;;;;;;5097183;28;20396;-72
2022/07/21 08:14:14;;;;;;;12.55;7.60;;;23.50;99.90;;;;;;5096467;28;20056;-70
2022/07/21 08:16:39;;;;;;;8.05;6.82;;;23.80;99.90;;;;;;5091381;28;20041;-70
2022/07/21 08:19:05;;;;;;;8.18;6.93;;;23.90;99.90;;;;;;5091915;28;20197;-71
2022/07/21 08:21:33;;;;;;;6.97;6.18;;;24.00;99.90;;;;;;5089420;28;20479;-69
2022/07/21 08:24:00;;;;;;;8.15;6.28;;;24.20;99.90;;;;;;5091056;28;20086;-71
2022/07/21 08:26:25;;;;;;;6.38;5.38;;;24.30;99.90;;;;;;5088681;28;20021;-71
2022/07/21 08:28:53;;;;;;;6.75;5.38;;;24.40;99.90;;;;;;5092382;28;20024;-71
2022/07/21 08:31:18;;;;;;;6.30;5.70;;;24.40;99.90;;;;;;5091048;28;20412;-71
2022/07/21 08:33:44;;;;;;;7.00;6.00;;;24.50;99.90;;;;;;5087826;28;20031;-73
2022/07/21 08:36:10;;;;;;;6.63;5.93;;;24.60;99.90;;;;;;5093549;28;20043;-70
2022/07/21 08:38:36;;;;;;;8.50;6.68;;;24.60;99.90;;;;;;5088080;28;20024;-70
2022/07/21 08:41:02;;;;;;;9.23;7.20;;;24.70;99.90;;;;;;5093784;28;20032;-70
2022/07/21 08:43:29;;;;;;;7.40;6.35;;;24.90;99.90;;;;;;5093791;28;20031;-71
2022/07/21 08:45:56;;;;;;;7.20;6.18;;;25.10;99.90;;;;;;5078939;28;20042;-72
2022/07/21 08:48:25;;;;;;;13.00;6.88;;;25.30;99.90;;;;;;5098933;28;20117;-71
2022/07/21 08:50:51;;;;;;;6.43;5.80;;;25.40;99.90;;;;;;5100865;28;20024;-71
2022/07/21 08:53:17;;;;;;;5.82;4.95;;;25.50;99.90;;;;;;5102050;28;20083;-70
2022/07/21 08:55:43;;;;;;;7.20;5.85;;;25.60;99.90;;;;;;5092036;28;20055;-73
2022/07/21 08:58:11;;;;;;;6.43;5.75;;;25.60;99.80;;;;;;5103292;28;20032;-70
2022/07/21 09:00:39;;;;;;;9.18;6.38;;;25.30;99.90;;;;;;5085705;28;20061;-72
2022/07/21 09:03:26;;;;;;;8.32;6.20;;;25.10;99.90;;;;;;5087769;28;20165;-71
2022/07/21 09:06:18;;;;;;;12.15;7.18;;;24.90;99.90;;;;;;5082321;28;20024;-72
2022/07/21 09:08:48;;;;;;;7.47;6.03;;;24.90;99.90;;;;;;5087473;28;20039;-72
2022/07/21 09:11:16;;;;;;;6.57;5.85;;;24.90;99.90;;;;;;5086055;28;20426;-70
2022/07/21 09:13:43;;;;;;;9.27;7.00;;;25.00;99.90;;;;;;5091438;28;20032;-72
2022/07/21 09:16:10;;;;;;;8.70;6.35;;;25.20;99.90;;;;;;5083155;28;20040;-71
2022/07/21 09:18:56;;;;;;;6.97;6.28;;;25.30;99.80;;;;;;5087139;28;20028;-71
2022/07/21 09:21:21;;;;;;;8.13;5.55;;;25.50;99.30;;;;;;5090807;28;20035;-71
2022/07/21 09:23:47;;;;;;;7.15;5.20;;;25.60;98.40;;;;;;5082906;28;20024;-71
2022/07/21 09:26:13;;;;;;;7.00;5.22;;;25.90;97.10;;;;;;5087937;28;20413;-71
2022/07/21 09:28:40;;;;;;;7.47;5.80;;;26.00;97.20;;;;;;5091104;28;20028;-70
2022/07/21 09:31:11;;;;;;;7.38;5.07;;;26.20;96.50;;;;;;5089240;28;20035;-71
2022/07/21 09:33:41;;;;;;;5.03;4.60;;;26.30;96.30;;;;;;5090819;28;20032;-71
2022/07/21 09:36:12;;;;;;;5.57;5.07;;;26.40;96.20;;;;;;5087750;28;20043;-71
2022/07/21 09:38:44;;;;;;;10.35;5.30;;;26.50;95.50;;;;;;5078893;28;20473;-70
2022/07/21 09:41:11;;;;;;;7.75;5.38;;;26.70;95.10;;;;;;5091255;28;20036;-71
2022/07/21 09:43:41;;;;;;;7.63;5.35;;;26.80;94.70;;;;;;5069829;28;20025;-71
2022/07/21 09:46:19;;;;;;;6.32;5.47;;;26.90;94.70;;;;;;5085265;28;20037;-71
2022/07/21 09:48:47;;;;;;;9.90;5.55;;;27.00;93.70;;;;;;5083940;28;20029;-72
2022/07/21 09:51:27;;;;;;;7.72;5.70;;;27.00;93.80;;;;;;5089579;28;20024;-71
2022/07/21 09:53:58;;;;;;;7.30;5.40;;;27.00;93.50;;;;;;5086475;28;20111;-71
2022/07/21 09:56:26;;;;;;;7.03;5.38;;;27.00;93.10;;;;;;5086683;28;20035;-71
2022/07/21 09:58:54;;;;;;;6.88;4.80;;;27.10;93.00;;;;;;5091268;28;20102;-70
2022/07/21 10:01:20;;;;;;;12.68;5.85;;;27.20;92.60;;;;;;5091315;28;20031;-71
2022/07/21 10:03:47;;;;;;;5.43;4.90;;;27.40;92.20;;;;;;5092886;28;20039;-73
2022/07/21 10:06:15;;;;;;;5.95;4.45;;;27.50;92.10;;;;;;5083186;28;20020;-71
2022/07/21 10:08:43;;;;;;;6.03;5.22;;;27.50;91.10;;;;;;5083916;28;20138;-71
2022/07/21 10:11:08;;;;;;;6.55;4.80;;;27.80;91.00;;;;;;5090297;28;20035;-71
2022/07/21 10:13:35;;;;;;;6.15;5.15;;;28.00;90.80;;;;;;5083123;28;20025;-71
2022/07/21 10:16:01;;;;;;;5.30;4.80;;;28.20;90.10;;;;;;5083424;28;20074;-75
2022/07/21 10:18:36;;;;;;;4.72;4.30;;;28.20;87.90;;;;;;5092164;28;20032;-70
2022/07/21 10:21:21;;;;;;;6.65;4.35;;;28.20;87.20;;;;;;5088300;28;20135;-70
2022/07/21 10:23:49;;;;;;;4.00;3.70;;;28.30;85.60;;;;;;5090739;28;20020;-71
2022/07/21 10:26:15;;;;;;;9.30;4.75;;;28.40;84.70;;;;;;5092069;28;20028;-70
2022/07/21 10:28:43;;;;;;;6.28;4.47;;;28.70;83.60;;;;;;5085157;28;20472;-71
2022/07/21 10:31:15;;;;;;;5.40;4.78;;;28.50;82.70;;;;;;5088225;28;20027;-70
2022/07/21 10:33:47;;;;;;;4.43;3.95;;;28.40;82.60;;;;;;5091320;28;20035;-70
2022/07/21 10:36:28;;;;;;;6.35;3.67;;;28.40;82.60;;;;;;5090277;28;20021;-70
2022/07/21 10:39:06;;;;;;;5.43;3.70;;;28.40;80.60;;;;;;5090088;28;20031;-71
2022/07/21 10:41:44;;;;;;;6.47;4.30;;;28.20;81.40;;;;;;5085054;28;20441;-71
2022/07/21 10:44:28;;;;;;;7.38;4.45;;;28.00;84.50;;;;;;5089704;28;20028;-70
2022/07/21 10:47:04;;;;;;;6.70;4.20;;;27.90;83.40;;;;;;5097786;28;20460;-70
2022/07/21 10:49:50;;;;;;;4.63;3.83;;;27.80;83.30;;;;;;5096917;28;20490;-70
2022/07/21 10:52:34;;;;;;;4.07;3.78;;;27.90;83.80;;;;;;5079301;28;20485;-68
2022/07/21 10:55:26;;;;;;;4.60;3.45;;;28.00;82.20;;;;;;5091860;28;20495;-70
2022/07/21 10:58:13;;;;;;;3.92;3.38;;;28.40;77.40;;;;;;5096209;28;20051;-70
2022/07/21 11:00:49;;;;;;;5.00;3.65;;;28.40;76.90;;;;;;5095412;28;20047;-69
2022/07/21 11:03:21;;;;;;;3.83;3.30;;;28.40;78.30;;;;;;5094791;28;20032;-69
2022/07/21 11:06:05;;;;;;;3.92;3.40;;;28.30;76.90;;;;;;5090954;28;20028;-70
2022/07/21 11:08:43;;;;;;;4.40;3.30;;;28.20;78.00;;;;;;5090277;28;20473;-69
2022/07/21 11:11:10;;;;;;;4.43;3.35;;;28.20;77.90;;;;;;5089100;28;20030;-69
2022/07/21 11:14:15;;;;;;;4.43;3.47;;;28.50;76.60;;;;;;5090016;28;20036;-70
2022/07/21 11:16:49;;;;;;;3.70;3.30;;;28.50;75.80;;;;;;5067192;28;20102;-70
2022/07/21 11:19:52;;;;;;;3.97;3.10;;;28.50;75.00;;;;;;5091588;28;20096;-69
2022/07/21 11:22:29;;;;;;;4.50;3.72;;;28.20;74.90;;;;;;5098304;28;20055;-75
2022/07/21 11:25:02;;;;;;;5.15;3.35;;;28.20;76.60;;;;;;5092571;28;20028;-69
2022/07/21 11:27:30;;;;;;;3.80;3.50;;;28.30;76.20;;;;;;5089806;28;20028;-69
2022/07/21 11:29:59;;;;;;;3.60;3.30;;;28.70;76.20;;;;;;5088153;28;20038;-69
2022/07/21 11:32:26;;;;;;;5.95;3.58;;;28.90;75.30;;;;;;5095133;28;20459;-68
2022/07/21 11:35:00;;;;;;;4.88;3.47;;;29.10;74.30;;;;;;5093017;28;20052;-69
2022/07/21 11:37:43;;;;;;;6.25;3.75;;;29.10;72.40;;;;;;5088142;28;20032;-69
2022/07/21 11:40:18;;;;;;;4.95;3.30;;;29.30;72.10;;;;;;5093156;28;20099;-69
2022/07/21 11:42:46;;;;;;;4.10;3.67;;;29.40;73.10;;;;;;5092427;28;20103;-70
2022/07/21 11:45:13;;;;;;;6.40;3.88;;;29.30;72.80;;;;;;5092403;28;20031;-69
2022/07/21 11:47:39;;;;;;;3.75;3.38;;;29.20;72.90;;;;;;5081445;28;20053;-70
2022/07/21 11:50:08;;;;;;;4.20;3.72;;;29.00;73.40;;;;;;5084293;28;20078;-70
2022/07/21 11:52:36;;;;;;;5.00;3.55;;;28.70;73.20;;;;;;5091315;28;20105;-70
2022/07/21 11:55:04;;;;;;;4.13;3.63;;;28.30;72.40;;;;;;5087961;28;20376;-70
2022/07/21 11:57:30;;;;;;;4.65;3.50;;;27.90;72.70;;;;;;5093906;28;20032;-70
2022/07/21 11:59:57;;;;;;;3.70;3.38;;;27.80;74.00;;;;;;5097496;28;20034;-70
2022/07/21 12:02:25;;;;;;;3.60;3.30;;;27.70;74.50;;;;;;5098120;28;20373;-70
2022/07/21 12:04:52;;;;;;;4.43;3.67;;;27.60;75.60;;;;;;5082966;28;20444;-70
2022/07/21 12:07:36;;;;;;;5.90;3.90;;;27.60;74.90;;;;;;5100234;28;20023;-70
2022/07/21 12:10:10;;;;;;;5.68;3.90;;;27.60;74.70;;;;;;5093485;28;20058;-69
2022/07/21 12:12:47;;;;;;;4.13;3.38;;;27.50;75.20;;;;;;5094741;28;20429;-69
2022/07/21 12:15:27;;;;;;;6.43;4.07;;;27.50;76.50;;;;;;5092982;28;20019;-69
2022/07/21 12:17:58;;;;;;;4.00;3.42;;;27.50;76.60;;;;;;5082408;28;20093;-69
2022/07/21 12:20:30;;;;;;;5.82;3.78;;;27.50;75.60;;;;;;5092257;28;20034;-69
2022/07/21 12:22:58;;;;;;;4.22;3.83;;;27.80;74.70;;;;;;5087202;28;20103;-69
2022/07/21 12:25:36;;;;;;;4.85;3.92;;;28.20;74.60;;;;;;5084271;28;20367;-69
2022/07/21 12:28:03;;;;;;;4.82;3.83;;;28.70;73.90;;;;;;5084020;28;20496;-69
2022/07/21 12:30:30;;;;;;;4.50;3.83;;;29.20;72.10;;;;;;5093375;28;20023;-70
2022/07/21 12:33:02;;;;;;;4.50;3.70;;;29.60;71.80;;;;;;5083183;28;20063;-70
2022/07/21 12:35:28;;;;;;;4.43;4.03;;;29.70;70.90;;;;;;5091095;28;20031;-70
2022/07/21 12:38:11;;;;;;;4.28;3.88;;;29.60;70.70;;;;;;5089002;28;20032;-70
2022/07/21 12:40:44;;;;;;;6.28;5.05;;;29.40;71.70;;;;;;5093289;28;20032;-69
2022/07/21 12:43:19;;;;;;;6.28;4.57;;;29.20;73.50;;;;;;5087570;28;20112;-69